sensor_id;sensor_type;location;lat;lon;timestamp;P1;durP1;ratioP1;P2;durP2;ratioP2
37517;SDS011;23366;52.498;13.446;2022-09-19T00:01:13;2.05;;;1.17;;
37517;SDS011;23366;52.498;13.446;2022-09-19T00:03:46;1.17;;;1.00;;
37517;SDS011;23366;52.498;13.446;2022-09-19T00:06:15;1.03;;;0.83;;
37517;SDS011;23366;52.498;13.446;2022-09-19T00:08:43;1.90;;;1.48;;
37517;SDS011;23366;52.498;13.446;2022-09-19T00:11:11;3.45;;;1.60;;
37517;SDS011;23366;52.498;13.446;2022-09-19T00:13:38;1.13;;;0.82;;
37517;SDS011;23366;52.498;13.446;2022-09-19T00:16:11;0.60;;;0.60;;
37517;SDS011;23366;52.498;13.446;2022-09-19T00:18:38;2.70;;;1.33;;
37517;SDS011;23366;52.498;13.446;2022-09-19T00:21:03;2.13;;;1.45;;
37517;SDS011;23366;52.498;13.446;2022-09-19T00:23:29;1.60;;;1.40;;
37517;SDS011;23366;52.498;13.446;2022-09-19T00:26:13;2.40;;;1.02;;
37517;SDS011;23366;52.498;13.446;2022-09-19T00:28:44;1.30;;;1.20;;
37517;SDS011;23366;52.498;13.446;2022-09-19T00:31:14;3.42;;;1.10;;
37517;SDS011;23366;52.498;13.446;2022-09-19T00:33:45;2.80;;;0.85;;
37517;SDS011;23366;52.498;13.446;2022-09-19T00:36:12;2.83;;;1.80;;
37517;SDS011;23366;52.498;13.446;2022-09-19T00:38:39;1.45;;;0.85;;
37517;SDS011;23366;52.498;13.446;2022-09-19T00:41:05;2.38;;;1.23;;
37517;SDS011;23366;52.498;13.446;2022-09-19T00:46:11;3.33;;;1.67;;
37517;SDS011;23366;52.498;13.446;2022-09-19T00:48:37;2.25;;;1.23;;
37517;SDS011;23366;52.498;13.446;2022-09-19T00:51:06;6.97;;;2.90;;
37517;SDS011;23366;52.498;13.446;2022-09-19T00:53:35;4.55;;;2.03;;
37517;SDS011;23366;52.498;13.446;2022-09-19T00:56:02;2.20;;;1.13;;
37517;SDS011;23366;52.498;13.446;2022-09-19T00:58:33;2.38;;;1.75;;
37517;SDS011;23366;52.498;13.446;2022-09-19T01:01:01;4.80;;;1.00;;
37517;SDS011;23366;52.498;13.446;2022-09-19T01:03:27;5.93;;;1.70;;
37517;SDS011;23366;52.498;13.446;2022-09-19T01:08:51;5.65;;;1.83;;
37517;SDS011;23366;52.498;13.446;2022-09-19T01:25:39;4.97;;;2.42;;
37517;SDS011;23366;52.498;13.446;2022-09-19T01:30:49;4.95;;;2.78;;
37517;SDS011;23366;52.498;13.446;2022-09-19T01:39:14;8.38;;;2.25;;
37517;SDS011;23366;52.498;13.446;2022-09-19T01:41:49;2.65;;;1.88;;
37517;SDS011;23366;52.498;13.446;2022-09-19T01:44:16;1.53;;;1.10;;
37517;SDS011;23366;52.498;13.446;2022-09-19T01:46:56;2.05;;;1.58;;
37517;SDS011;23366;52.498;13.446;2022-09-19T01:53:06;1.42;;;0.73;;
37517;SDS011;23366;52.498;13.446;2022-09-19T01:58:34;1.95;;;1.25;;
37517;SDS011;23366;52.498;13.446;2022-09-19T02:01:28;2.03;;;0.88;;
37517;SDS011;23366;52.498;13.446;2022-09-19T02:07:00;2.15;;;1.60;;
37517;SDS011;23366;52.498;13.446;2022-09-19T02:12:05;1.08;;;1.00;;
37517;SDS011;23366;52.498;13.446;2022-09-19T02:14:35;1.60;;;1.38;;
37517;SDS011;23366;52.498;13.446;2022-09-19T02:17:05;2.45;;;1.58;;
37517;SDS011;23366;52.498;13.446;2022-09-19T02:19:44;1.83;;;0.95;;
37517;SDS011;23366;52.498;13.446;2022-09-19T02:22:15;1.20;;;1.10;;
37517;SDS011;23366;52.498;13.446;2022-09-19T02:24:49;3.70;;;2.00;;
37517;SDS011;23366;52.498;13.446;2022-09-19T02:27:22;1.23;;;0.90;;
37517;SDS011;23366;52.498;13.446;2022-09-19T02:29:52;1.08;;;1.00;;
37517;SDS011;23366;52.498;13.446;2022-09-19T02:32:22;1.95;;;0.73;;
37517;SDS011;23366;52.498;13.446;2022-09-19T02:34:49;2.03;;;1.75;;
37517;SDS011;23366;52.498;13.446;2022-09-19T02:37:54;2.92;;;1.55;;
37517;SDS011;23366;52.498;13.446;2022-09-19T02:40:21;1.95;;;1.15;;
37517;SDS011;23366;52.498;13.446;2022-09-19T02:45:23;5.15;;;2.45;;
37517;SDS011;23366;52.498;13.446;2022-09-19T02:47:58;1.40;;;1.00;;
37517;SDS011;23366;52.498;13.446;2022-09-19T02:50:35;6.68;;;2.05;;
37517;SDS011;23366;52.498;13.446;2022-09-19T02:53:03;1.52;;;1.05;;
37517;SDS011;23366;52.498;13.446;2022-09-19T02:55:33;1.80;;;1.70;;
37517;SDS011;23366;52.498;13.446;2022-09-19T02:58:06;1.20;;;1.10;;
37517;SDS011;23366;52.498;13.446;2022-09-19T03:00:34;1.45;;;1.00;;
37517;SDS011;23366;52.498;13.446;2022-09-19T03:03:04;4.65;;;1.33;;
37517;SDS011;23366;52.498;13.446;2022-09-19T03:05:57;1.55;;;1.30;;
37517;SDS011;23366;52.498;13.446;2022-09-19T03:08:24;3.00;;;1.05;;
37517;SDS011;23366;52.498;13.446;2022-09-19T03:10:54;2.40;;;1.90;;
37517;SDS011;23366;52.498;13.446;2022-09-19T03:13:23;3.92;;;1.20;;
37517;SDS011;23366;52.498;13.446;2022-09-19T03:15:51;1.83;;;1.35;;
37517;SDS011;23366;52.498;13.446;2022-09-19T03:18:24;2.50;;;1.42;;
37517;SDS011;23366;52.498;13.446;2022-09-19T03:20:53;2.95;;;1.73;;
37517;SDS011;23366;52.498;13.446;2022-09-19T03:23:25;2.70;;;1.73;;
37517;SDS011;23366;52.498;13.446;2022-09-19T03:26:12;4.22;;;1.20;;
37517;SDS011;23366;52.498;13.446;2022-09-19T03:28:42;3.00;;;0.93;;
37517;SDS011;23366;52.498;13.446;2022-09-19T03:31:08;1.40;;;1.30;;
37517;SDS011;23366;52.498;13.446;2022-09-19T03:33:34;3.88;;;2.72;;
37517;SDS011;23366;52.498;13.446;2022-09-19T03:36:00;1.52;;;1.30;;
37517;SDS011;23366;52.498;13.446;2022-09-19T03:38:31;3.70;;;1.17;;
37517;SDS011;23366;52.498;13.446;2022-09-19T03:40:57;1.73;;;1.27;;
37517;SDS011;23366;52.498;13.446;2022-09-19T03:43:23;2.20;;;1.50;;
37517;SDS011;23366;52.498;13.446;2022-09-19T03:45:49;1.92;;;1.52;;
37517;SDS011;23366;52.498;13.446;2022-09-19T03:48:14;1.88;;;1.33;;
37517;SDS011;23366;52.498;13.446;2022-09-19T03:50:41;5.45;;;1.92;;
37517;SDS011;23366;52.498;13.446;2022-09-19T03:53:06;2.63;;;1.85;;
37517;SDS011;23366;52.498;13.446;2022-09-19T03:55:36;2.53;;;1.83;;
37517;SDS011;23366;52.498;13.446;2022-09-19T03:58:06;4.45;;;2.13;;
37517;SDS011;23366;52.498;13.446;2022-09-19T04:00:34;2.40;;;1.63;;
37517;SDS011;23366;52.498;13.446;2022-09-19T04:03:00;1.40;;;1.15;;
37517;SDS011;23366;52.498;13.446;2022-09-19T04:05:25;1.23;;;1.05;;
37517;SDS011;23366;52.498;13.446;2022-09-19T04:07:51;3.60;;;1.58;;
37517;SDS011;23366;52.498;13.446;2022-09-19T04:10:17;3.10;;;1.33;;
37517;SDS011;23366;52.498;13.446;2022-09-19T04:12:42;1.67;;;1.52;;
37517;SDS011;23366;52.498;13.446;2022-09-19T04:15:08;2.38;;;1.20;;
37517;SDS011;23366;52.498;13.446;2022-09-19T04:17:34;2.60;;;1.48;;
37517;SDS011;23366;52.498;13.446;2022-09-19T04:19:59;3.45;;;1.42;;
37517;SDS011;23366;52.498;13.446;2022-09-19T04:22:25;2.50;;;2.00;;
37517;SDS011;23366;52.498;13.446;2022-09-19T04:24:50;2.67;;;1.98;;
37517;SDS011;23366;52.498;13.446;2022-09-19T04:27:17;2.60;;;1.67;;
37517;SDS011;23366;52.498;13.446;2022-09-19T04:29:43;3.92;;;2.38;;
37517;SDS011;23366;52.498;13.446;2022-09-19T04:32:09;3.55;;;1.73;;
37517;SDS011;23366;52.498;13.446;2022-09-19T04:34:35;3.53;;;1.83;;
37517;SDS011;23366;52.498;13.446;2022-09-19T04:37:01;3.47;;;2.15;;
37517;SDS011;23366;52.498;13.446;2022-09-19T04:39:28;2.00;;;1.80;;
37517;SDS011;23366;52.498;13.446;2022-09-19T04:41:55;3.75;;;2.20;;
37517;SDS011;23366;52.498;13.446;2022-09-19T04:44:20;2.90;;;2.00;;
37517;SDS011;23366;52.498;13.446;2022-09-19T04:46:47;4.35;;;2.75;;
37517;SDS011;23366;52.498;13.446;2022-09-19T04:49:15;3.72;;;3.15;;
37517;SDS011;23366;52.498;13.446;2022-09-19T04:51:41;3.63;;;1.40;;
37517;SDS011;23366;52.498;13.446;2022-09-19T04:54:08;3.67;;;2.35;;
37517;SDS011;23366;52.498;13.446;2022-09-19T04:56:34;3.53;;;1.83;;
37517;SDS011;23366;52.498;13.446;2022-09-19T04:58:59;3.78;;;2.65;;
37517;SDS011;23366;52.498;13.446;2022-09-19T05:01:25;4.80;;;2.22;;
37517;SDS011;23366;52.498;13.446;2022-09-19T05:03:51;3.60;;;2.03;;
37517;SDS011;23366;52.498;13.446;2022-09-19T05:06:17;4.47;;;2.38;;
37517;SDS011;23366;52.498;13.446;2022-09-19T05:08:43;4.15;;;2.75;;
37517;SDS011;23366;52.498;13.446;2022-09-19T05:11:09;5.38;;;3.13;;
37517;SDS011;23366;52.498;13.446;2022-09-19T05:13:36;3.65;;;2.58;;
37517;SDS011;23366;52.498;13.446;2022-09-19T05:16:06;4.85;;;2.53;;
37517;SDS011;23366;52.498;13.446;2022-09-19T05:18:32;5.22;;;3.60;;
37517;SDS011;23366;52.498;13.446;2022-09-19T05:21:08;5.05;;;2.97;;
37517;SDS011;23366;52.498;13.446;2022-09-19T05:23:36;3.55;;;2.30;;
37517;SDS011;23366;52.498;13.446;2022-09-19T05:26:10;3.65;;;2.58;;
37517;SDS011;23366;52.498;13.446;2022-09-19T05:28:41;4.82;;;1.98;;
37517;SDS011;23366;52.498;13.446;2022-09-19T05:31:11;4.35;;;2.95;;
37517;SDS011;23366;52.498;13.446;2022-09-19T05:33:38;5.07;;;3.10;;
37517;SDS011;23366;52.498;13.446;2022-09-19T05:36:03;4.38;;;2.53;;
37517;SDS011;23366;52.498;13.446;2022-09-19T05:38:30;2.78;;;2.47;;
37517;SDS011;23366;52.498;13.446;2022-09-19T05:40:57;2.65;;;2.30;;
37517;SDS011;23366;52.498;13.446;2022-09-19T05:43:25;3.22;;;2.80;;
37517;SDS011;23366;52.498;13.446;2022-09-19T05:45:51;5.40;;;2.25;;
37517;SDS011;23366;52.498;13.446;2022-09-19T05:48:17;3.58;;;2.58;;
37517;SDS011;23366;52.498;13.446;2022-09-19T05:50:44;4.88;;;2.80;;
37517;SDS011;23366;52.498;13.446;2022-09-19T05:53:12;4.72;;;2.55;;
37517;SDS011;23366;52.498;13.446;2022-09-19T05:55:57;2.35;;;1.50;;
37517;SDS011;23366;52.498;13.446;2022-09-19T05:58:23;2.05;;;1.50;;
37517;SDS011;23366;52.498;13.446;2022-09-19T06:00:49;1.73;;;0.95;;
37517;SDS011;23366;52.498;13.446;2022-09-19T06:03:16;1.95;;;1.30;;
37517;SDS011;23366;52.498;13.446;2022-09-19T06:05:45;3.58;;;1.73;;
37517;SDS011;23366;52.498;13.446;2022-09-19T06:08:14;2.40;;;1.60;;
37517;SDS011;23366;52.498;13.446;2022-09-19T06:10:41;1.23;;;1.08;;
37517;SDS011;23366;52.498;13.446;2022-09-19T06:13:17;1.38;;;0.93;;
37517;SDS011;23366;52.498;13.446;2022-09-19T06:15:45;1.35;;;1.23;;
37517;SDS011;23366;52.498;13.446;2022-09-19T06:18:11;2.13;;;1.23;;
37517;SDS011;23366;52.498;13.446;2022-09-19T06:20:37;5.38;;;1.60;;
37517;SDS011;23366;52.498;13.446;2022-09-19T06:23:04;1.35;;;1.02;;
37517;SDS011;23366;52.498;13.446;2022-09-19T06:25:32;2.47;;;1.40;;
37517;SDS011;23366;52.498;13.446;2022-09-19T06:28:00;1.73;;;0.95;;
37517;SDS011;23366;52.498;13.446;2022-09-19T06:30:27;1.60;;;1.20;;
37517;SDS011;23366;52.498;13.446;2022-09-19T06:32:53;2.95;;;1.92;;
37517;SDS011;23366;52.498;13.446;2022-09-19T06:35:20;3.58;;;1.38;;
37517;SDS011;23366;52.498;13.446;2022-09-19T06:37:47;10.13;;;1.95;;
37517;SDS011;23366;52.498;13.446;2022-09-19T06:40:13;4.65;;;1.55;;
37517;SDS011;23366;52.498;13.446;2022-09-19T06:42:43;1.92;;;1.63;;
37517;SDS011;23366;52.498;13.446;2022-09-19T06:45:09;2.58;;;1.52;;
37517;SDS011;23366;52.498;13.446;2022-09-19T06:47:35;2.72;;;2.13;;
37517;SDS011;23366;52.498;13.446;2022-09-19T06:50:01;1.65;;;1.27;;
37517;SDS011;23366;52.498;13.446;2022-09-19T06:52:27;2.22;;;1.88;;
37517;SDS011;23366;52.498;13.446;2022-09-19T06:54:53;3.72;;;1.38;;
37517;SDS011;23366;52.498;13.446;2022-09-19T06:57:19;3.78;;;2.15;;
37517;SDS011;23366;52.498;13.446;2022-09-19T06:59:45;1.95;;;1.40;;
37517;SDS011;23366;52.498;13.446;2022-09-19T07:02:10;2.00;;;1.60;;
37517;SDS011;23366;52.498;13.446;2022-09-19T07:04:37;1.88;;;1.25;;
37517;SDS011;23366;52.498;13.446;2022-09-19T07:07:03;3.45;;;2.47;;
37517;SDS011;23366;52.498;13.446;2022-09-19T07:09:30;0.75;;;0.75;;
37517;SDS011;23366;52.498;13.446;2022-09-19T07:11:56;1.60;;;1.20;;
37517;SDS011;23366;52.498;13.446;2022-09-19T07:14:22;1.92;;;1.17;;
37517;SDS011;23366;52.498;13.446;2022-09-19T07:16:48;1.73;;;0.77;;
37517;SDS011;23366;52.498;13.446;2022-09-19T07:19:14;1.10;;;0.90;;
37517;SDS011;23366;52.498;13.446;2022-09-19T07:21:40;1.17;;;0.98;;
37517;SDS011;23366;52.498;13.446;2022-09-19T07:24:05;1.83;;;1.42;;
37517;SDS011;23366;52.498;13.446;2022-09-19T07:26:32;1.38;;;0.70;;
37517;SDS011;23366;52.498;13.446;2022-09-19T07:28:58;1.17;;;1.08;;
37517;SDS011;23366;52.498;13.446;2022-09-19T07:31:24;1.27;;;1.02;;
37517;SDS011;23366;52.498;13.446;2022-09-19T07:33:51;1.10;;;0.88;;
37517;SDS011;23366;52.498;13.446;2022-09-19T07:36:18;1.58;;;1.48;;
37517;SDS011;23366;52.498;13.446;2022-09-19T07:38:46;2.55;;;1.13;;
37517;SDS011;23366;52.498;13.446;2022-09-19T07:41:13;1.40;;;1.30;;
37517;SDS011;23366;52.498;13.446;2022-09-19T07:43:39;1.35;;;1.25;;
37517;SDS011;23366;52.498;13.446;2022-09-19T07:46:05;0.80;;;0.80;;
37517;SDS011;23366;52.498;13.446;2022-09-19T07:48:31;2.13;;;1.10;;
37517;SDS011;23366;52.498;13.446;2022-09-19T07:50:56;1.58;;;1.35;;
37517;SDS011;23366;52.498;13.446;2022-09-19T07:53:23;2.20;;;1.27;;
37517;SDS011;23366;52.498;13.446;2022-09-19T07:55:49;1.30;;;1.17;;
37517;SDS011;23366;52.498;13.446;2022-09-19T07:58:21;1.67;;;0.88;;
37517;SDS011;23366;52.498;13.446;2022-09-19T08:00:48;5.35;;;1.95;;
37517;SDS011;23366;52.498;13.446;2022-09-19T08:03:15;2.58;;;1.42;;
37517;SDS011;23366;52.498;13.446;2022-09-19T08:05:42;2.28;;;0.80;;
37517;SDS011;23366;52.498;13.446;2022-09-19T08:08:12;1.23;;;0.80;;
37517;SDS011;23366;52.498;13.446;2022-09-19T08:10:40;0.77;;;0.68;;
37517;SDS011;23366;52.498;13.446;2022-09-19T08:13:07;0.50;;;0.50;;
37517;SDS011;23366;52.498;13.446;2022-09-19T08:15:37;2.03;;;0.75;;
37517;SDS011;23366;52.498;13.446;2022-09-19T08:18:04;2.75;;;0.73;;
37517;SDS011;23366;52.498;13.446;2022-09-19T08:20:32;1.60;;;0.77;;
37517;SDS011;23366;52.498;13.446;2022-09-19T08:23:02;1.73;;;1.20;;
37517;SDS011;23366;52.498;13.446;2022-09-19T08:25:46;5.32;;;1.60;;
37517;SDS011;23366;52.498;13.446;2022-09-19T08:28:15;0.88;;;0.55;;
37517;SDS011;23366;52.498;13.446;2022-09-19T08:30:42;3.67;;;0.93;;
37517;SDS011;23366;52.498;13.446;2022-09-19T08:33:09;0.90;;;0.60;;
37517;SDS011;23366;52.498;13.446;2022-09-19T08:35:35;0.30;;;0.30;;
37517;SDS011;23366;52.498;13.446;2022-09-19T08:38:03;0.38;;;0.30;;
37517;SDS011;23366;52.498;13.446;2022-09-19T08:40:31;2.85;;;0.45;;
37517;SDS011;23366;52.498;13.446;2022-09-19T08:48:46;0.50;;;0.32;;
37517;SDS011;23366;52.498;13.446;2022-09-19T08:51:19;0.32;;;0.20;;
37517;SDS011;23366;52.498;13.446;2022-09-19T08:54:11;0.10;;;0.10;;
37517;SDS011;23366;52.498;13.446;2022-09-19T08:56:44;0.45;;;0.40;;
37517;SDS011;23366;52.498;13.446;2022-09-19T08:59:11;1.00;;;0.60;;
37517;SDS011;23366;52.498;13.446;2022-09-19T09:01:40;0.38;;;0.38;;
37517;SDS011;23366;52.498;13.446;2022-09-19T09:04:18;2.47;;;0.40;;
37517;SDS011;23366;52.498;13.446;2022-09-19T09:09:32;1.08;;;0.40;;
37517;SDS011;23366;52.498;13.446;2022-09-19T09:12:11;1.17;;;0.77;;
37517;SDS011;23366;52.498;13.446;2022-09-19T09:18:15;0.30;;;0.30;;
37517;SDS011;23366;52.498;13.446;2022-09-19T09:23:33;0.40;;;0.32;;
37517;SDS011;23366;52.498;13.446;2022-09-19T09:26:02;1.10;;;0.77;;
37517;SDS011;23366;52.498;13.446;2022-09-19T09:28:39;0.90;;;0.50;;
37517;SDS011;23366;52.498;13.446;2022-09-19T09:31:19;0.93;;;0.30;;
37517;SDS011;23366;52.498;13.446;2022-09-19T09:33:54;0.38;;;0.17;;
37517;SDS011;23366;52.498;13.446;2022-09-19T09:36:37;0.40;;;0.40;;
37517;SDS011;23366;52.498;13.446;2022-09-19T09:39:15;0.85;;;0.32;;
37517;SDS011;23366;52.498;13.446;2022-09-19T09:42:16;0.85;;;0.28;;
37517;SDS011;23366;52.498;13.446;2022-09-19T09:44:54;0.50;;;0.38;;
37517;SDS011;23366;52.498;13.446;2022-09-19T09:47:41;6.38;;;0.60;;
37517;SDS011;23366;52.498;13.446;2022-09-19T09:50:36;0.98;;;0.40;;
37517;SDS011;23366;52.498;13.446;2022-09-19T09:59:26;0.40;;;0.40;;
37517;SDS011;23366;52.498;13.446;2022-09-19T10:02:53;1.23;;;0.30;;
37517;SDS011;23366;52.498;13.446;2022-09-19T10:05:51;0.85;;;0.40;;
37517;SDS011;23366;52.498;13.446;2022-09-19T10:11:00;2.03;;;1.25;;
37517;SDS011;23366;52.498;13.446;2022-09-19T10:13:27;0.40;;;0.30;;
37517;SDS011;23366;52.498;13.446;2022-09-19T10:15:55;0.38;;;0.35;;
37517;SDS011;23366;52.498;13.446;2022-09-19T10:18:28;0.90;;;0.32;;
37517;SDS011;23366;52.498;13.446;2022-09-19T10:21:06;1.15;;;0.25;;
37517;SDS011;23366;52.498;13.446;2022-09-19T10:23:32;1.88;;;0.43;;
37517;SDS011;23366;52.498;13.446;2022-09-19T10:26:02;0.20;;;0.20;;
37517;SDS011;23366;52.498;13.446;2022-09-19T10:28:31;1.45;;;0.50;;
37517;SDS011;23366;52.498;13.446;2022-09-19T10:31:03;1.35;;;0.98;;
37517;SDS011;23366;52.498;13.446;2022-09-19T10:36:22;0.60;;;0.60;;
37517;SDS011;23366;52.498;13.446;2022-09-19T10:38:57;0.35;;;0.20;;
37517;SDS011;23366;52.498;13.446;2022-09-19T10:41:26;2.00;;;1.02;;
37517;SDS011;23366;52.498;13.446;2022-09-19T10:43:57;0.65;;;0.60;;
37517;SDS011;23366;52.498;13.446;2022-09-19T10:46:29;1.75;;;0.88;;
37517;SDS011;23366;52.498;13.446;2022-09-19T10:49:02;2.20;;;1.58;;
37517;SDS011;23366;52.498;13.446;2022-09-19T10:51:49;1.45;;;0.60;;
37517;SDS011;23366;52.498;13.446;2022-09-19T10:54:33;2.15;;;1.40;;
37517;SDS011;23366;52.498;13.446;2022-09-19T10:57:01;2.53;;;1.27;;
37517;SDS011;23366;52.498;13.446;2022-09-19T10:59:30;1.00;;;0.47;;
37517;SDS011;23366;52.498;13.446;2022-09-19T11:02:17;1.02;;;0.43;;
37517;SDS011;23366;52.498;13.446;2022-09-19T11:04:54;0.43;;;0.40;;
37517;SDS011;23366;52.498;13.446;2022-09-19T11:07:50;0.45;;;0.30;;
37517;SDS011;23366;52.498;13.446;2022-09-19T11:10:32;0.52;;;0.52;;
37517;SDS011;23366;52.498;13.446;2022-09-19T11:13:06;0.52;;;0.35;;
37517;SDS011;23366;52.498;13.446;2022-09-19T11:16:02;0.40;;;0.40;;
37517;SDS011;23366;52.498;13.446;2022-09-19T11:29:56;1.05;;;0.63;;
37517;SDS011;23366;52.498;13.446;2022-09-19T11:32:48;1.58;;;1.20;;
37517;SDS011;23366;52.498;13.446;2022-09-19T11:38:08;1.33;;;1.15;;
37517;SDS011;23366;52.498;13.446;2022-09-19T11:43:43;1.58;;;0.70;;
37517;SDS011;23366;52.498;13.446;2022-09-19T11:51:29;1.10;;;0.60;;
37517;SDS011;23366;52.498;13.446;2022-09-19T11:59:51;1.65;;;1.20;;
37517;SDS011;23366;52.498;13.446;2022-09-19T12:05:27;2.95;;;0.75;;
37517;SDS011;23366;52.498;13.446;2022-09-19T12:08:18;0.70;;;0.70;;
37517;SDS011;23366;52.498;13.446;2022-09-19T12:10:55;1.90;;;0.70;;
37517;SDS011;23366;52.498;13.446;2022-09-19T12:15:57;1.25;;;0.75;;
37517;SDS011;23366;52.498;13.446;2022-09-19T12:21:20;0.68;;;0.50;;
37517;SDS011;23366;52.498;13.446;2022-09-19T12:23:52;0.20;;;0.20;;
37517;SDS011;23366;52.498;13.446;2022-09-19T12:29:52;0.40;;;0.40;;
37517;SDS011;23366;52.498;13.446;2022-09-19T12:33:15;1.13;;;0.65;;
37517;SDS011;23366;52.498;13.446;2022-09-19T12:35:30;1.20;;;0.82;;
37517;SDS011;23366;52.498;13.446;2022-09-19T12:40:54;2.13;;;0.40;;
37517;SDS011;23366;52.498;13.446;2022-09-19T12:48:58;1.30;;;0.95;;
37517;SDS011;23366;52.498;13.446;2022-09-19T12:54:36;0.88;;;0.80;;
37517;SDS011;23366;52.498;13.446;2022-09-19T13:00:42;1.02;;;0.70;;
37517;SDS011;23366;52.498;13.446;2022-09-19T13:03:14;7.68;;;0.80;;
37517;SDS011;23366;52.498;13.446;2022-09-19T13:06:01;0.85;;;0.75;;
37517;SDS011;23366;52.498;13.446;2022-09-19T13:08:44;1.15;;;0.88;;
37517;SDS011;23366;52.498;13.446;2022-09-19T13:11:19;1.45;;;0.80;;
37517;SDS011;23366;52.498;13.446;2022-09-19T13:14:02;0.88;;;0.88;;
37517;SDS011;23366;52.498;13.446;2022-09-19T13:16:36;2.80;;;2.03;;
37517;SDS011;23366;52.498;13.446;2022-09-19T13:19:37;2.07;;;1.13;;
37517;SDS011;23366;52.498;13.446;2022-09-19T13:22:24;3.90;;;1.60;;
37517;SDS011;23366;52.498;13.446;2022-09-19T13:25:12;17.15;;;4.88;;
37517;SDS011;23366;52.498;13.446;2022-09-19T13:27:46;5.43;;;3.65;;
37517;SDS011;23366;52.498;13.446;2022-09-19T13:33:43;5.80;;;2.60;;
37517;SDS011;23366;52.498;13.446;2022-09-19T13:36:17;3.00;;;1.15;;
37517;SDS011;23366;52.498;13.446;2022-09-19T13:39:01;2.22;;;1.58;;
37517;SDS011;23366;52.498;13.446;2022-09-19T13:41:40;2.60;;;1.50;;
37517;SDS011;23366;52.498;13.446;2022-09-19T13:49:28;1.88;;;1.45;;
37517;SDS011;23366;52.498;13.446;2022-09-19T13:52:33;2.10;;;1.25;;
37517;SDS011;23366;52.498;13.446;2022-09-19T13:57:38;2.22;;;1.23;;
37517;SDS011;23366;52.498;13.446;2022-09-19T14:03:03;2.30;;;2.00;;
37517;SDS011;23366;52.498;13.446;2022-09-19T14:05:34;3.60;;;1.77;;
37517;SDS011;23366;52.498;13.446;2022-09-19T14:08:04;4.75;;;2.17;;
37517;SDS011;23366;52.498;13.446;2022-09-19T14:21:05;12.45;;;5.70;;
37517;SDS011;23366;52.498;13.446;2022-09-19T14:42:48;1.58;;;1.33;;
37517;SDS011;23366;52.498;13.446;2022-09-19T14:48:28;3.17;;;1.50;;
37517;SDS011;23366;52.498;13.446;2022-09-19T14:51:47;2.17;;;1.15;;
37517;SDS011;23366;52.498;13.446;2022-09-19T14:54:04;2.17;;;1.38;;
37517;SDS011;23366;52.498;13.446;2022-09-19T14:56:30;1.77;;;1.27;;
37517;SDS011;23366;52.498;13.446;2022-09-19T14:59:03;1.10;;;0.88;;
37517;SDS011;23366;52.498;13.446;2022-09-19T15:01:33;1.27;;;0.70;;
37517;SDS011;23366;52.498;13.446;2022-09-19T15:04:01;1.50;;;0.88;;
37517;SDS011;23366;52.498;13.446;2022-09-19T15:06:45;1.48;;;0.47;;
37517;SDS011;23366;52.498;13.446;2022-09-19T15:11:48;0.98;;;0.43;;
37517;SDS011;23366;52.498;13.446;2022-09-19T15:14:15;1.25;;;0.95;;
37517;SDS011;23366;52.498;13.446;2022-09-19T15:16:41;0.73;;;0.30;;
37517;SDS011;23366;52.498;13.446;2022-09-19T15:19:07;1.45;;;0.60;;
37517;SDS011;23366;52.498;13.446;2022-09-19T15:21:34;2.33;;;0.65;;
37517;SDS011;23366;52.498;13.446;2022-09-19T15:24:01;1.05;;;0.60;;
37517;SDS011;23366;52.498;13.446;2022-09-19T15:26:32;2.00;;;0.90;;
37517;SDS011;23366;52.498;13.446;2022-09-19T15:29:48;1.90;;;0.80;;
37517;SDS011;23366;52.498;13.446;2022-09-19T15:35:01;2.25;;;1.40;;
37517;SDS011;23366;52.498;13.446;2022-09-19T15:37:28;2.60;;;1.27;;
37517;SDS011;23366;52.498;13.446;2022-09-19T15:39:56;3.15;;;2.17;;
37517;SDS011;23366;52.498;13.446;2022-09-19T15:42:22;3.17;;;1.98;;
37517;SDS011;23366;52.498;13.446;2022-09-19T15:44:48;4.47;;;2.53;;
37517;SDS011;23366;52.498;13.446;2022-09-19T15:47:17;2.03;;;1.63;;
37517;SDS011;23366;52.498;13.446;2022-09-19T15:49:47;4.18;;;1.85;;
37517;SDS011;23366;52.498;13.446;2022-09-19T15:52:33;4.68;;;1.77;;
37517;SDS011;23366;52.498;13.446;2022-09-19T15:55:02;3.25;;;1.77;;
37517;SDS011;23366;52.498;13.446;2022-09-19T15:57:31;1.92;;;1.40;;
37517;SDS011;23366;52.498;13.446;2022-09-19T16:00:06;2.05;;;1.80;;
37517;SDS011;23366;52.498;13.446;2022-09-19T16:02:45;4.80;;;2.58;;
37517;SDS011;23366;52.498;13.446;2022-09-19T16:05:17;2.28;;;1.02;;
37517;SDS011;23366;52.498;13.446;2022-09-19T16:07:49;3.97;;;1.60;;
37517;SDS011;23366;52.498;13.446;2022-09-19T16:10:38;2.55;;;0.80;;
37517;SDS011;23366;52.498;13.446;2022-09-19T16:16:02;2.13;;;0.70;;
37517;SDS011;23366;52.498;13.446;2022-09-19T16:18:44;1.90;;;1.10;;
37517;SDS011;23366;52.498;13.446;2022-09-19T16:21:13;3.60;;;2.03;;
37517;SDS011;23366;52.498;13.446;2022-09-19T16:23:44;2.28;;;1.55;;
37517;SDS011;23366;52.498;13.446;2022-09-19T16:26:13;2.88;;;1.95;;
37517;SDS011;23366;52.498;13.446;2022-09-19T16:28:47;2.75;;;1.48;;
37517;SDS011;23366;52.498;13.446;2022-09-19T16:31:33;5.65;;;2.25;;
37517;SDS011;23366;52.498;13.446;2022-09-19T16:36:53;4.80;;;2.45;;
37517;SDS011;23366;52.498;13.446;2022-09-19T16:39:21;5.32;;;1.98;;
37517;SDS011;23366;52.498;13.446;2022-09-19T16:46:52;4.43;;;1.92;;
37517;SDS011;23366;52.498;13.446;2022-09-19T16:49:24;5.35;;;1.48;;
37517;SDS011;23366;52.498;13.446;2022-09-19T16:51:50;2.53;;;1.35;;
37517;SDS011;23366;52.498;13.446;2022-09-19T16:54:17;3.00;;;1.30;;
37517;SDS011;23366;52.498;13.446;2022-09-19T16:56:43;1.95;;;1.08;;
37517;SDS011;23366;52.498;13.446;2022-09-19T16:59:12;2.15;;;1.13;;
37517;SDS011;23366;52.498;13.446;2022-09-19T17:01:40;4.60;;;1.33;;
37517;SDS011;23366;52.498;13.446;2022-09-19T17:04:07;6.65;;;2.33;;
37517;SDS011;23366;52.498;13.446;2022-09-19T17:06:36;2.30;;;1.45;;
37517;SDS011;23366;52.498;13.446;2022-09-19T17:09:02;1.02;;;0.70;;
37517;SDS011;23366;52.498;13.446;2022-09-19T17:11:28;2.97;;;1.25;;
37517;SDS011;23366;52.498;13.446;2022-09-19T17:13:54;1.75;;;1.02;;
37517;SDS011;23366;52.498;13.446;2022-09-19T17:16:20;3.92;;;1.60;;
37517;SDS011;23366;52.498;13.446;2022-09-19T17:18:45;2.63;;;1.65;;
37517;SDS011;23366;52.498;13.446;2022-09-19T17:21:13;3.05;;;1.73;;
37517;SDS011;23366;52.498;13.446;2022-09-19T17:23:43;6.30;;;1.17;;
37517;SDS011;23366;52.498;13.446;2022-09-19T17:26:10;2.08;;;1.50;;
37517;SDS011;23366;52.498;13.446;2022-09-19T17:28:36;5.03;;;1.38;;
37517;SDS011;23366;52.498;13.446;2022-09-19T17:31:04;2.35;;;1.92;;
37517;SDS011;23366;52.498;13.446;2022-09-19T17:33:30;1.95;;;1.05;;
37517;SDS011;23366;52.498;13.446;2022-09-19T17:35:57;6.35;;;2.95;;
37517;SDS011;23366;52.498;13.446;2022-09-19T17:38:28;2.83;;;1.67;;
37517;SDS011;23366;52.498;13.446;2022-09-19T17:40:54;4.95;;;1.98;;
37517;SDS011;23366;52.498;13.446;2022-09-19T17:43:21;4.90;;;1.48;;
37517;SDS011;23366;52.498;13.446;2022-09-19T17:45:48;6.00;;;2.60;;
37517;SDS011;23366;52.498;13.446;2022-09-19T17:48:23;3.17;;;1.73;;
37517;SDS011;23366;52.498;13.446;2022-09-19T17:50:48;7.15;;;2.47;;
37517;SDS011;23366;52.498;13.446;2022-09-19T17:53:14;2.80;;;1.60;;
37517;SDS011;23366;52.498;13.446;2022-09-19T17:55:39;9.32;;;2.05;;
37517;SDS011;23366;52.498;13.446;2022-09-19T17:58:05;3.80;;;2.00;;
37517;SDS011;23366;52.498;13.446;2022-09-19T18:00:33;4.78;;;2.15;;
37517;SDS011;23366;52.498;13.446;2022-09-19T18:03:00;4.65;;;2.20;;
37517;SDS011;23366;52.498;13.446;2022-09-19T18:05:57;4.97;;;2.08;;